createdAt,value
2022-08-19T00:01:53.396Z,26.67
2022-08-19T00:04:22.823Z,28.05
2022-08-19T00:06:49.424Z,27.45
2022-08-19T00:09:18.314Z,26.08
2022-08-19T00:11:45.825Z,26.37
2022-08-19T00:14:14.500Z,25.83
2022-08-19T00:16:42.327Z,31.15
2022-08-19T00:19:10.631Z,28.67
2022-08-19T00:21:37.457Z,30.90
2022-08-19T00:24:04.294Z,31.08
2022-08-19T00:26:30.923Z,30.37
2022-08-19T00:28:57.475Z,26.92
2022-08-19T00:31:24.160Z,31.30
2022-08-19T00:33:50.688Z,27.00
2022-08-19T00:36:18.879Z,27.63
2022-08-19T00:38:45.764Z,28.53
2022-08-19T00:41:14.502Z,27.80
2022-08-19T00:43:41.179Z,25.63
2022-08-19T00:46:08.355Z,25.88
2022-08-19T00:48:35.958Z,28.42
2022-08-19T00:51:04.237Z,29.67
2022-08-19T00:53:33.451Z,27.07
2022-08-19T00:56:01.836Z,28.42
2022-08-19T00:58:31.750Z,27.15
2022-08-19T01:00:58.339Z,28.23
2022-08-19T01:03:24.930Z,26.25
2022-08-19T01:05:54.595Z,26.30
2022-08-19T01:08:21.779Z,25.77
2022-08-19T01:10:51.930Z,27.20
2022-08-19T01:13:23.256Z,25.05
2022-08-19T01:15:54.511Z,22.48
2022-08-19T01:18:21.683Z,24.13
2022-08-19T01:20:49.054Z,24.90
2022-08-19T01:23:17.530Z,25.90
2022-08-19T01:25:47.927Z,26.38
2022-08-19T01:28:33.618Z,25.52
2022-08-19T01:31:08.237Z,26.33
2022-08-19T01:33:35.265Z,26.33
2022-08-19T01:36:07.883Z,26.53
2022-08-19T01:38:44.491Z,26.30
2022-08-19T01:41:11.933Z,25.15
2022-08-19T01:43:39.231Z,24.30
2022-08-19T01:46:25.830Z,25.48
2022-08-19T01:48:52.369Z,23.80
2022-08-19T01:51:18.989Z,23.47
2022-08-19T01:53:50.160Z,20.65
2022-08-19T01:56:16.913Z,23.42
2022-08-19T01:58:47.901Z,23.10
2022-08-19T02:01:14.572Z,21.80
2022-08-19T02:03:41.236Z,21.70
2022-08-19T02:06:07.977Z,23.60
2022-08-19T02:08:38.027Z,24.63
2022-08-19T02:11:06.425Z,22.55
2022-08-19T02:13:33.644Z,25.92
2022-08-19T02:16:00.212Z,22.80
2022-08-19T02:18:30.976Z,22.53
2022-08-19T02:20:57.545Z,24.90
2022-08-19T02:23:24.171Z,22.65
2022-08-19T02:25:52.409Z,28.55
2022-08-19T02:28:20.428Z,25.33
2022-08-19T02:30:48.754Z,26.33
2022-08-19T02:33:15.883Z,24.57
2022-08-19T02:35:43.161Z,25.17
2022-08-19T02:38:09.850Z,24.30
2022-08-19T02:40:36.606Z,23.40
2022-08-19T02:43:04.039Z,22.13
2022-08-19T02:45:34.756Z,24.10
2022-08-19T02:48:01.449Z,21.37
2022-08-19T02:50:29.957Z,22.27
2022-08-19T02:52:56.517Z,22.60
2022-08-19T02:55:23.173Z,20.10
2022-08-19T02:57:49.899Z,20.20
2022-08-19T03:00:17.382Z,20.38
2022-08-19T03:02:45.286Z,19.77
2022-08-19T03:05:11.832Z,19.80
2022-08-19T03:07:38.546Z,25.10
2022-08-19T03:10:06.192Z,23.00
2022-08-19T03:12:36.808Z,22.20
2022-08-19T03:15:04.360Z,23.27
2022-08-19T03:17:30.893Z,22.27
2022-08-19T03:19:58.811Z,19.85
2022-08-19T03:22:25.346Z,23.50
2022-08-19T03:24:51.977Z,21.95
2022-08-19T03:27:18.557Z,22.25
2022-08-19T03:29:45.123Z,22.23
2022-08-19T03:32:31.720Z,23.63
2022-08-19T03:35:00.353Z,22.08
2022-08-19T03:37:26.897Z,23.95
2022-08-19T03:39:53.470Z,23.05
2022-08-19T03:42:38.481Z,23.03
2022-08-19T03:45:07.872Z,23.23
2022-08-19T03:47:34.506Z,23.30
2022-08-19T03:50:02.717Z,21.88
2022-08-19T03:52:29.336Z,22.50
2022-08-19T03:54:55.910Z,21.67
2022-08-19T03:57:31.744Z,22.27
2022-08-19T04:00:12.686Z,23.00
2022-08-19T04:02:39.933Z,22.58
2022-08-19T04:05:08.458Z,22.77
2022-08-19T04:07:35.111Z,23.52
2022-08-19T04:10:01.685Z,21.90
2022-08-19T04:12:29.046Z,20.10
2022-08-19T04:14:55.574Z,24.17
2022-08-19T04:17:22.135Z,22.02
2022-08-19T04:19:48.698Z,21.25
2022-08-19T04:22:16.590Z,23.20
2022-08-19T04:24:43.152Z,21.47
2022-08-19T04:27:09.703Z,21.10
2022-08-19T04:29:36.306Z,20.67
2022-08-19T04:32:09.008Z,20.55
2022-08-19T04:34:36.938Z,20.70
2022-08-19T04:37:24.915Z,18.48
2022-08-19T04:39:51.489Z,21.37
2022-08-19T04:42:30.624Z,22.20
2022-08-19T04:44:57.907Z,19.98
2022-08-19T04:47:47.908Z,19.42
2022-08-19T04:50:12.461Z,19.10
2022-08-19T04:52:40.730Z,22.23
2022-08-19T04:55:07.899Z,21.27
2022-08-19T04:57:34.480Z,19.00
2022-08-19T05:00:01.022Z,22.55
2022-08-19T05:02:27.651Z,18.20
2022-08-19T05:04:58.318Z,19.48
2022-08-19T05:07:24.862Z,17.03
2022-08-19T05:09:58.051Z,18.08
2022-08-19T05:12:29.115Z,17.00
2022-08-19T05:14:56.576Z,17.67
2022-08-19T05:17:27.639Z,16.63
2022-08-19T05:19:55.231Z,18.93
2022-08-19T05:22:21.808Z,16.80
2022-08-19T05:25:11.209Z,14.70
2022-08-19T05:27:36.378Z,15.77
2022-08-19T05:30:04.440Z,15.93
2022-08-19T05:32:31.023Z,15.83
2022-08-19T05:34:57.762Z,17.33
2022-08-19T05:37:24.338Z,14.88
2022-08-19T05:39:51.734Z,16.63
2022-08-19T05:42:18.361Z,14.25
2022-08-19T05:44:46.322Z,15.00
2022-08-19T05:47:14.502Z,17.40
2022-08-19T05:49:41.227Z,15.90
2022-08-19T05:52:10.555Z,15.60
2022-08-19T05:54:39.129Z,13.30
2022-08-19T05:57:05.670Z,15.85
2022-08-19T05:59:32.273Z,16.17
2022-08-19T06:02:00.190Z,15.60
2022-08-19T06:04:26.771Z,16.05
2022-08-19T06:06:54.359Z,17.40
2022-08-19T06:09:21.996Z,13.82
2022-08-19T06:11:54.115Z,13.20
2022-08-19T06:14:27.816Z,15.77
2022-08-19T06:16:55.131Z,13.00
2022-08-19T06:19:23.856Z,13.07
2022-08-19T06:21:51.606Z,13.23
2022-08-19T06:24:21.035Z,11.13
2022-08-19T06:29:23.532Z,13.07
2022-08-19T06:31:52.574Z,13.82
2022-08-19T06:34:20.144Z,13.60
2022-08-19T06:36:50.768Z,13.23
2022-08-19T06:39:19.598Z,14.73
2022-08-19T06:41:52.472Z,13.70
2022-08-19T06:44:22.410Z,12.90
2022-08-19T06:46:54.841Z,13.95
2022-08-19T06:49:21.970Z,10.95
2022-08-19T06:51:51.768Z,11.40
2022-08-19T06:54:20.164Z,12.67
2022-08-19T06:56:48.030Z,13.82
2022-08-19T06:59:18.259Z,12.45
2022-08-19T07:01:47.391Z,12.32
2022-08-19T07:04:15.019Z,11.68
2022-08-19T07:06:44.321Z,12.57
2022-08-19T07:09:18.376Z,13.15
2022-08-19T07:11:46.849Z,11.68
2022-08-19T07:14:19.031Z,15.68
2022-08-19T07:16:49.178Z,12.63
2022-08-19T07:19:18.844Z,11.20
2022-08-19T07:21:46.528Z,11.73
2022-08-19T07:24:14.412Z,10.82
2022-08-19T07:26:43.398Z,11.32
2022-08-19T07:29:11.439Z,12.73
2022-08-19T07:31:38.713Z,11.03
2022-08-19T07:34:07.378Z,9.68
2022-08-19T07:36:35.910Z,10.43
2022-08-19T07:39:06.922Z,9.75
2022-08-19T07:41:36.220Z,10.50
2022-08-19T07:44:04.158Z,10.07
2022-08-19T07:46:31.087Z,9.37
2022-08-19T07:48:58.202Z,9.90
2022-08-19T07:51:36.713Z,9.63
2022-08-19T07:54:04.475Z,10.05
2022-08-19T07:56:31.322Z,10.57
2022-08-19T07:58:59.236Z,10.07
2022-08-19T08:01:28.190Z,8.40
2022-08-19T08:03:56.805Z,9.60
2022-08-19T08:06:24.072Z,11.70
2022-08-19T08:08:50.660Z,9.68
2022-08-19T08:11:21.066Z,11.48
2022-08-19T08:13:48.648Z,10.87
2022-08-19T08:16:29.626Z,9.35
2022-08-19T08:18:56.741Z,13.15
2022-08-19T08:21:24.239Z,9.48
2022-08-19T08:23:53.197Z,10.00
2022-08-19T08:26:21.019Z,9.27
2022-08-19T08:28:48.062Z,8.50
2022-08-19T08:31:16.203Z,7.13
2022-08-19T08:33:44.232Z,7.55
2022-08-19T08:36:12.005Z,8.20
2022-08-19T08:38:40.312Z,7.83
2022-08-19T08:41:14.283Z,8.45
2022-08-19T08:43:41.890Z,8.02
2022-08-19T08:46:13.778Z,6.53
2022-08-19T08:48:53.598Z,8.43
2022-08-19T08:51:24.809Z,9.23
2022-08-19T08:53:57.749Z,8.40
2022-08-19T08:56:24.366Z,8.60
2022-08-19T08:58:57.942Z,6.60
2022-08-19T09:01:25.085Z,7.50
2022-08-19T09:04:02.825Z,9.23
2022-08-19T09:06:37.987Z,7.28
2022-08-19T09:09:15.313Z,6.85
2022-08-19T09:11:57.431Z,6.90
2022-08-19T09:14:52.651Z,7.32
2022-08-19T09:17:21.776Z,7.17
2022-08-19T09:19:54.661Z,9.02
2022-08-19T09:22:25.385Z,6.43
2022-08-19T09:24:53.262Z,7.28
2022-08-19T09:27:20.159Z,7.15
2022-08-19T09:29:46.727Z,7.63
2022-08-19T09:32:26.721Z,6.57
2022-08-19T09:34:55.122Z,5.70
2022-08-19T09:37:22.063Z,5.82
2022-08-19T09:39:51.975Z,6.63
2022-08-19T09:42:29.765Z,7.83
2022-08-19T09:44:57.157Z,6.10
2022-08-19T09:47:26.638Z,5.72
2022-08-19T09:49:53.227Z,6.20
2022-08-19T09:52:22.254Z,7.95
2022-08-19T09:54:52.327Z,6.37
2022-08-19T09:57:18.934Z,6.35
2022-08-19T09:59:45.543Z,6.57
2022-08-19T10:02:12.123Z,7.75
2022-08-19T10:04:39.305Z,8.05
2022-08-19T10:07:06.925Z,6.97
2022-08-19T10:09:35.099Z,6.15
2022-08-19T10:12:03.056Z,7.55
2022-08-19T10:14:30.053Z,5.43
2022-08-19T10:16:56.626Z,6.05
2022-08-19T10:19:25.755Z,7.73
2022-08-19T10:21:53.932Z,6.85
2022-08-19T10:24:20.530Z,6.72
2022-08-19T10:26:48.426Z,6.93
2022-08-19T10:29:32.049Z,6.38
2022-08-19T10:32:02.289Z,6.93
2022-08-19T10:34:31.567Z,6.32
2022-08-19T10:37:00.756Z,6.57
2022-08-19T10:39:29.036Z,6.32
2022-08-19T10:41:59.026Z,7.38
2022-08-19T10:44:26.447Z,6.10
2022-08-19T10:47:00.083Z,5.88
2022-08-19T10:49:26.719Z,5.90
2022-08-19T10:51:54.791Z,6.25
2022-08-19T10:54:32.130Z,6.65
2022-08-19T10:57:01.368Z,6.77
2022-08-19T10:59:35.268Z,6.45
2022-08-19T11:02:04.240Z,7.03
2022-08-19T11:04:30.877Z,6.15
2022-08-19T11:06:57.456Z,6.95
2022-08-19T11:09:33.345Z,5.97
2022-08-19T11:12:02.824Z,5.63
2022-08-19T11:14:34.232Z,7.70
2022-08-19T11:17:01.658Z,6.38
2022-08-19T11:19:28.227Z,7.55
2022-08-19T11:21:54.797Z,6.20
2022-08-19T11:24:26.552Z,8.60
2022-08-19T11:26:55.347Z,7.10
2022-08-19T11:29:23.363Z,6.07
2022-08-19T11:31:50.811Z,6.78
2022-08-19T11:34:21.357Z,6.07
2022-08-19T11:36:49.716Z,6.20
2022-08-19T11:39:17.981Z,5.60
2022-08-19T11:41:44.820Z,5.68
2022-08-19T11:44:11.716Z,6.60
2022-08-19T11:46:39.668Z,6.07
2022-08-19T11:49:13.249Z,6.10
2022-08-19T11:51:40.941Z,6.03
2022-08-19T11:54:07.479Z,5.70
2022-08-19T11:56:34.043Z,6.25
2022-08-19T11:59:01.882Z,7.10
2022-08-19T12:01:28.659Z,5.55
2022-08-19T12:03:57.749Z,5.78
2022-08-19T12:06:32.099Z,6.70
2022-08-19T12:09:00.122Z,9.38
2022-08-19T12:11:27.943Z,5.30
2022-08-19T12:13:55.742Z,6.60
2022-08-19T12:16:24.165Z,5.97
2022-08-19T12:18:51.178Z,5.55
2022-08-19T12:21:22.156Z,6.88
2022-08-19T12:23:53.894Z,6.27
2022-08-19T12:26:22.824Z,5.40
2022-08-19T12:28:49.889Z,6.22
2022-08-19T12:31:16.447Z,5.90
2022-08-19T12:33:43.271Z,7.68
2022-08-19T12:36:12.080Z,5.83
2022-08-19T12:38:40.303Z,5.95
2022-08-19T12:41:09.883Z,5.63
2022-08-19T12:43:37.707Z,5.65
2022-08-19T12:46:05.578Z,5.97
2022-08-19T12:48:34.445Z,6.67
2022-08-19T12:51:06.742Z,6.53
2022-08-19T12:53:33.357Z,6.45
2022-08-19T12:56:03.232Z,6.55
2022-08-19T12:58:33.987Z,7.95
2022-08-19T13:01:00.622Z,6.37
2022-08-19T13:03:27.181Z,7.05
2022-08-19T13:05:53.801Z,7.40
2022-08-19T13:08:20.343Z,5.60
2022-08-19T13:10:46.936Z,6.00
2022-08-19T13:13:14.980Z,7.07
2022-08-19T13:15:43.039Z,6.75
2022-08-19T13:18:10.938Z,5.75
2022-08-19T13:20:39.545Z,6.07
2022-08-19T13:23:06.090Z,6.57
2022-08-19T13:25:32.799Z,5.93
2022-08-19T13:28:00.849Z,6.97
2022-08-19T13:30:28.755Z,6.03
2022-08-19T13:32:55.354Z,7.13
2022-08-19T13:35:21.907Z,6.80
2022-08-19T13:37:48.550Z,5.97
2022-08-19T13:40:17.391Z,5.72
2022-08-19T13:42:45.456Z,6.38
2022-08-19T13:45:11.998Z,6.25
2022-08-19T13:47:39.994Z,7.40
2022-08-19T13:50:07.468Z,6.50
2022-08-19T13:52:34.024Z,5.78
2022-08-19T13:55:00.574Z,6.20
2022-08-19T13:57:27.632Z,7.85
2022-08-19T13:59:54.207Z,6.97
2022-08-19T14:02:20.748Z,7.20
2022-08-19T14:04:48.647Z,6.95
2022-08-19T14:07:15.174Z,7.97
2022-08-19T14:09:42.560Z,7.72
2022-08-19T14:12:09.925Z,7.03
2022-08-19T14:14:37.488Z,8.77
2022-08-19T14:17:07.247Z,7.53
2022-08-19T14:19:34.134Z,7.32
2022-08-19T14:22:02.014Z,7.05
2022-08-19T14:24:28.572Z,7.57
2022-08-19T14:26:55.142Z,5.93
2022-08-19T14:29:21.847Z,6.93
2022-08-19T14:31:48.399Z,7.35
2022-08-19T14:34:15.100Z,7.22
2022-08-19T14:36:41.787Z,9.13
2022-08-19T14:39:09.915Z,6.73
2022-08-19T14:41:36.997Z,9.32
2022-08-19T14:44:03.915Z,7.78
2022-08-19T14:46:30.439Z,8.50
2022-08-19T14:48:57.166Z,6.20
2022-08-19T14:51:26.744Z,9.93
2022-08-19T14:53:54.680Z,7.45
2022-08-19T14:56:25.192Z,7.93
2022-08-19T14:58:51.905Z,8.13
2022-08-19T15:01:19.547Z,7.63
2022-08-19T15:03:47.005Z,8.43
2022-08-19T15:06:13.777Z,8.55
2022-08-19T15:08:42.356Z,7.32
2022-08-19T15:11:10.704Z,7.10
2022-08-19T15:13:39.242Z,7.30
2022-08-19T15:16:06.430Z,7.77
2022-08-19T15:18:45.039Z,7.22
2022-08-19T15:21:11.915Z,6.38
2022-08-19T15:23:39.068Z,6.97
2022-08-19T15:26:05.785Z,7.40
2022-08-19T15:28:32.439Z,7.00
2022-08-19T15:31:00.325Z,6.90
2022-08-19T15:33:26.887Z,6.95
2022-08-19T15:35:53.471Z,7.47
2022-08-19T15:38:20.541Z,6.65
2022-08-19T15:40:47.143Z,6.90
2022-08-19T15:43:13.694Z,6.75
2022-08-19T15:45:40.286Z,6.68
2022-08-19T15:48:08.467Z,7.07
2022-08-19T15:50:35.054Z,9.68
2022-08-19T15:53:04.364Z,7.03
2022-08-19T15:55:34.575Z,7.22
2022-08-19T15:58:03.286Z,7.40
2022-08-19T16:00:29.802Z,7.63
2022-08-19T16:02:56.356Z,7.95
2022-08-19T16:05:26.690Z,7.17
2022-08-19T16:07:53.457Z,6.68
2022-08-19T16:10:26.909Z,6.82
2022-08-19T16:12:54.755Z,6.63
2022-08-19T16:15:21.614Z,6.47
2022-08-19T16:17:55.426Z,8.93
2022-08-19T16:20:25.931Z,6.65
2022-08-19T16:22:54.098Z,7.28
2022-08-19T16:25:20.706Z,7.15
2022-08-19T16:28:06.314Z,8.82
2022-08-19T16:30:33.770Z,8.53
2022-08-19T16:33:00.326Z,6.50
2022-08-19T16:35:28.227Z,6.97
2022-08-19T16:37:54.902Z,6.53
2022-08-19T16:40:21.714Z,7.13
2022-08-19T16:42:48.338Z,7.17
2022-08-19T16:45:15.181Z,7.72
2022-08-19T16:47:41.771Z,6.28
2022-08-19T16:50:08.936Z,8.50
2022-08-19T16:52:36.862Z,7.15
2022-08-19T16:55:04.590Z,6.63
2022-08-19T16:57:31.198Z,7.05
2022-08-19T16:59:57.902Z,6.35
2022-08-19T17:02:29.476Z,8.18
2022-08-19T17:04:58.158Z,7.32
2022-08-19T17:07:26.106Z,6.77
2022-08-19T17:09:54.052Z,7.80
2022-08-19T17:12:21.884Z,7.43
2022-08-19T17:14:48.414Z,7.45
2022-08-19T17:17:14.993Z,7.35
2022-08-19T17:19:43.543Z,7.20
2022-08-19T17:22:11.501Z,8.07
2022-08-19T17:24:38.359Z,6.90
2022-08-19T17:27:08.648Z,6.90
2022-08-19T17:29:35.638Z,6.45
2022-08-19T17:32:02.556Z,7.27
2022-08-19T17:34:29.100Z,7.32
2022-08-19T17:36:55.652Z,6.78
2022-08-19T17:39:22.230Z,7.43
2022-08-19T17:41:48.781Z,7.35
2022-08-19T17:44:16.682Z,8.03
2022-08-19T17:46:43.197Z,8.23
2022-08-19T17:49:09.721Z,7.53
2022-08-19T17:51:43.734Z,7.75
2022-08-19T17:54:12.755Z,8.77
2022-08-19T17:56:39.379Z,7.27
2022-08-19T17:59:06.359Z,8.27
2022-08-19T18:01:52.373Z,6.90
2022-08-19T18:04:21.132Z,8.55
2022-08-19T18:06:53.004Z,8.68
2022-08-19T18:09:23.770Z,8.37
2022-08-19T18:11:52.659Z,7.00
2022-08-19T18:14:20.103Z,7.35
2022-08-19T18:16:48.004Z,6.65
2022-08-19T18:19:14.539Z,7.35
2022-08-19T18:21:41.087Z,8.43
2022-08-19T18:24:07.790Z,8.18
2022-08-19T18:26:34.360Z,9.48
2022-08-19T18:29:00.917Z,8.82
2022-08-19T18:31:27.461Z,7.85
2022-08-19T18:33:55.437Z,7.50
2022-08-19T18:36:50.137Z,9.52
2022-08-19T18:39:08.621Z,7.40
2022-08-19T18:41:35.354Z,8.07
2022-08-19T18:44:02.120Z,7.47
2022-08-19T18:46:29.062Z,8.47
2022-08-19T18:49:03.093Z,9.13
2022-08-19T18:51:29.636Z,9.90
2022-08-19T18:53:56.258Z,7.30
2022-08-19T18:56:22.792Z,7.15
2022-08-19T18:58:49.367Z,8.60
2022-08-19T19:01:18.956Z,7.18
2022-08-19T19:03:47.502Z,7.32
2022-08-19T19:06:18.266Z,8.88
2022-08-19T19:08:44.834Z,8.52
2022-08-19T19:11:11.425Z,7.80
2022-08-19T19:13:39.479Z,8.07
2022-08-19T19:16:06.651Z,9.98
2022-08-19T19:18:33.255Z,7.50
2022-08-19T19:20:59.876Z,7.20
2022-08-19T19:23:27.791Z,8.43
2022-08-19T19:25:54.897Z,7.77
2022-08-19T19:28:23.531Z,8.55
2022-08-19T19:30:50.060Z,8.43
2022-08-19T19:33:16.600Z,7.47
2022-08-19T19:35:43.544Z,8.65
2022-08-19T19:38:12.370Z,8.20
2022-08-19T19:40:40.297Z,10.02
2022-08-19T19:43:06.852Z,8.13
2022-08-19T19:45:33.444Z,8.18
2022-08-19T19:48:00.024Z,8.77
2022-08-19T19:50:27.124Z,8.40
2022-08-19T19:52:53.670Z,7.80
2022-08-19T19:55:20.294Z,9.68
2022-08-19T19:57:48.730Z,8.15
2022-08-19T20:00:17.437Z,9.25
2022-08-19T20:02:47.889Z,10.43
2022-08-19T20:05:17.344Z,8.60
2022-08-19T20:07:43.899Z,9.20
2022-08-19T20:10:10.513Z,7.13
2022-08-19T20:12:37.119Z,9.65
2022-08-19T20:15:05.538Z,7.68
2022-08-19T20:17:32.127Z,7.63
2022-08-19T20:19:58.683Z,9.15
2022-08-19T20:22:25.511Z,8.77
2022-08-19T20:24:52.077Z,8.85
2022-08-19T20:27:18.790Z,8.25
2022-08-19T20:29:47.543Z,9.53
2022-08-19T20:32:16.383Z,8.27
2022-08-19T20:34:42.948Z,9.52
2022-08-19T20:37:09.781Z,8.32
2022-08-19T20:39:36.614Z,9.40
2022-08-19T20:42:03.453Z,8.17
2022-08-19T20:44:29.987Z,8.57
2022-08-19T20:47:00.567Z,8.40
2022-08-19T20:49:31.618Z,9.27
2022-08-19T20:51:58.191Z,9.10
2022-08-19T20:54:24.851Z,9.33
2022-08-19T20:56:51.431Z,8.45
2022-08-19T20:59:18.054Z,9.07
2022-08-19T21:01:44.630Z,8.55
2022-08-19T21:04:11.206Z,8.60
2022-08-19T21:06:39.074Z,9.20
2022-08-19T21:09:08.832Z,9.60
2022-08-19T21:11:35.851Z,8.77
2022-08-19T21:14:02.475Z,9.60
2022-08-19T21:16:29.051Z,8.98
2022-08-19T21:18:55.582Z,8.97
2022-08-19T21:21:22.127Z,8.20
2022-08-19T21:23:49.992Z,8.30
2022-08-19T21:26:16.832Z,8.50
2022-08-19T21:28:43.463Z,10.27
2022-08-19T21:31:10.263Z,9.70
2022-08-19T21:33:38.202Z,8.93
2022-08-19T21:36:05.415Z,13.15
2022-08-19T21:38:31.977Z,9.00
2022-08-19T21:41:04.203Z,9.77
2022-08-19T21:43:33.684Z,8.80
2022-08-19T21:46:00.228Z,9.47
2022-08-19T21:48:27.451Z,8.87
2022-08-19T21:50:53.999Z,10.27
2022-08-19T21:53:22.749Z,9.18
2022-08-19T21:55:53.543Z,9.45
2022-08-19T21:58:28.200Z,10.63
2022-08-19T22:00:57.418Z,9.00
2022-08-19T22:03:24.022Z,8.88
2022-08-19T22:05:50.765Z,10.18
2022-08-19T22:08:17.329Z,9.20
2022-08-19T22:10:45.095Z,9.20
2022-08-19T22:13:13.397Z,8.93
2022-08-19T22:15:41.522Z,9.60
2022-08-19T22:18:08.062Z,10.05
2022-08-19T22:20:34.692Z,10.35
2022-08-19T22:23:04.555Z,8.45
2022-08-19T22:25:34.846Z,9.45
2022-08-19T22:28:02.744Z,10.03
2022-08-19T22:30:33.639Z,9.77
2022-08-19T22:33:04.473Z,10.02
2022-08-19T22:35:33.582Z,9.57
2022-08-19T22:38:01.232Z,10.10
2022-08-19T22:40:29.875Z,10.60
2022-08-19T22:42:58.074Z,11.07
2022-08-19T22:45:24.757Z,9.98
2022-08-19T22:47:51.464Z,9.40
2022-08-19T22:50:19.607Z,9.43
2022-08-19T22:52:51.787Z,9.38
2022-08-19T22:55:19.143Z,9.10
2022-08-19T22:57:45.721Z,9.57
2022-08-19T23:00:13.261Z,9.98
2022-08-19T23:02:51.591Z,9.95
2022-08-19T23:05:22.397Z,8.75
2022-08-19T23:07:52.359Z,10.60
2022-08-19T23:10:26.904Z,10.50
2022-08-19T23:12:56.618Z,9.68
2022-08-19T23:15:25.507Z,9.98
2022-08-19T23:17:53.029Z,12.63
2022-08-19T23:20:22.651Z,10.35
2022-08-19T23:22:49.190Z,10.30
2022-08-19T23:25:17.873Z,10.55
2022-08-19T23:27:44.689Z,10.13
2022-08-19T23:30:11.651Z,10.10
2022-08-19T23:32:38.227Z,10.35
2022-08-19T23:35:05.481Z,10.57
2022-08-19T23:37:33.454Z,10.77
2022-08-19T23:40:00.044Z,10.70
2022-08-19T23:42:26.687Z,10.95
2022-08-19T23:44:53.211Z,10.57
2022-08-19T23:47:20.465Z,11.40
2022-08-19T23:49:46.998Z,10.27
2022-08-19T23:52:13.521Z,10.60
2022-08-19T23:54:43.681Z,12.15
2022-08-19T23:57:14.209Z,10.43
2022-08-19T23:59:42.135Z,11.57
